Terminal Aerodrome Forecast
Issued by NWS Louisville, KY

Home | Current Version | Previous Version | Text Only | Print | Product List | Glossary On
Versions: 1 2 3 4 5 6 7 8 9 10 11 12 13 14
000
FTUS43 KLMK 132331
TAFSDF
TAF
KSDF 132331Z 1400/1506 25015G23KT P6SM BKN050
     FM140500 29016G28KT P6SM BKN040
     FM140800 32011KT P6SM BKN060
     FM141400 34007KT P6SM SCT050 SCT200=

USA.gov is the U.S. government's official web portal to all federal, state and local government web resources and services.